createdAt,value
2019-05-22T00:00:30.312Z,56.50
2019-05-22T00:02:58.529Z,56.50
2019-05-22T00:05:26.731Z,56.70
2019-05-22T00:07:53.139Z,56.70
2019-05-22T00:10:25.427Z,56.70
2019-05-22T00:12:53.853Z,56.70
2019-05-22T00:15:21.582Z,56.90
2019-05-22T00:17:49.805Z,56.90
2019-05-22T00:20:17.210Z,57.00
2019-05-22T00:22:46.737Z,57.10
2019-05-22T00:25:14.968Z,57.10
2019-05-22T00:27:43.175Z,56.90
2019-05-22T00:30:12.707Z,56.90
2019-05-22T00:32:39.317Z,57.00
2019-05-22T00:35:07.319Z,57.00
2019-05-22T00:37:33.784Z,57.00
2019-05-22T00:40:00.159Z,57.20
2019-05-22T00:42:27.600Z,57.10
2019-05-22T00:44:55.611Z,57.20
2019-05-22T00:47:24.317Z,57.20
2019-05-22T00:49:52.444Z,57.20
2019-05-22T00:52:23.366Z,57.20
2019-05-22T00:54:55.644Z,57.30
2019-05-22T00:57:28.403Z,57.20
2019-05-22T00:59:56.971Z,57.30
2019-05-22T01:02:25.940Z,57.20
2019-05-22T01:04:53.734Z,57.20
2019-05-22T01:07:21.964Z,57.20
2019-05-22T01:09:51.256Z,57.40
2019-05-22T01:12:26.343Z,57.30
2019-05-22T01:14:52.777Z,57.40
2019-05-22T01:17:21.394Z,57.50
2019-05-22T01:19:51.217Z,57.60
2019-05-22T01:22:19.457Z,57.40
2019-05-22T01:24:48.767Z,57.40
2019-05-22T01:27:15.370Z,57.50
2019-05-22T01:29:43.098Z,57.60
2019-05-22T01:32:26.544Z,57.60
2019-05-22T01:34:53.980Z,57.60
2019-05-22T01:37:20.290Z,57.40
2019-05-22T01:39:55.211Z,58.00
2019-05-22T01:42:23.031Z,57.50
2019-05-22T01:45:01.822Z,57.60
2019-05-22T01:47:27.163Z,57.60
2019-05-22T01:49:53.793Z,57.60
2019-05-22T01:52:20.875Z,57.70
2019-05-22T01:54:47.695Z,57.50
2019-05-22T01:57:15.897Z,57.80
2019-05-22T01:59:42.526Z,57.80
2019-05-22T02:02:09.141Z,57.70
2019-05-22T02:04:35.776Z,57.80
2019-05-22T02:07:03.504Z,58.00
2019-05-22T02:09:33.207Z,57.90
2019-05-22T02:12:06.447Z,57.90
2019-05-22T02:14:33.883Z,57.80
2019-05-22T02:17:00.705Z,57.80
2019-05-22T02:19:27.816Z,57.70
2019-05-22T02:21:54.621Z,57.80
2019-05-22T02:24:22.550Z,57.80
2019-05-22T02:26:49.550Z,57.70
2019-05-22T02:29:17.756Z,57.70
2019-05-22T02:31:44.083Z,57.90
2019-05-22T02:34:11.169Z,57.80
2019-05-22T02:36:38.543Z,57.80
2019-05-22T02:39:09.548Z,57.80
2019-05-22T02:41:42.828Z,57.70
2019-05-22T02:44:09.432Z,57.70
2019-05-22T02:46:36.937Z,57.70
2019-05-22T02:49:04.663Z,57.50
2019-05-22T02:51:31.049Z,57.30
2019-05-22T02:53:57.811Z,57.50
2019-05-22T02:56:24.612Z,57.40
2019-05-22T02:58:51.429Z,57.50
2019-05-22T03:01:19.184Z,57.50
2019-05-22T03:03:45.695Z,57.50
2019-05-22T03:06:12.018Z,57.80
2019-05-22T03:08:57.856Z,57.40
2019-05-22T03:11:40.735Z,59.00
2019-05-22T03:14:12.551Z,58.30
2019-05-22T03:16:53.769Z,58.30
2019-05-22T03:19:44.603Z,58.00
2019-05-22T03:22:31.804Z,58.00
2019-05-22T03:25:02.686Z,58.00
2019-05-22T03:27:37.334Z,57.90
2019-05-22T03:30:05.924Z,57.90
2019-05-22T03:32:32.332Z,58.20
2019-05-22T03:34:59.077Z,58.00
2019-05-22T03:37:26.474Z,58.00
2019-05-22T03:39:53.573Z,58.00
2019-05-22T03:42:20.483Z,57.80
2019-05-22T03:44:47.401Z,57.80
2019-05-22T03:47:13.818Z,57.90
2019-05-22T03:49:40.719Z,57.90
2019-05-22T03:52:09.060Z,58.00
2019-05-22T03:54:35.958Z,57.70
2019-05-22T03:57:02.488Z,58.00
2019-05-22T03:59:29.490Z,58.00
2019-05-22T04:01:55.813Z,58.00
2019-05-22T04:04:34.837Z,58.00
2019-05-22T04:07:02.486Z,58.00
2019-05-22T04:09:29.890Z,58.00
2019-05-22T04:11:56.353Z,58.50
2019-05-22T04:14:30.890Z,58.00
2019-05-22T04:16:58.396Z,58.10
2019-05-22T04:19:24.860Z,58.10
2019-05-22T04:21:51.550Z,58.10
2019-05-22T04:24:17.947Z,58.00
2019-05-22T04:26:44.271Z,58.10
2019-05-22T04:29:11.076Z,58.00
2019-05-22T04:31:48.648Z,58.10
2019-05-22T04:34:15.159Z,58.80
2019-05-22T04:36:42.063Z,58.40
2019-05-22T04:39:12.489Z,58.40
2019-05-22T04:41:40.812Z,58.10
2019-05-22T04:44:07.204Z,58.00
2019-05-22T04:46:33.829Z,58.10
2019-05-22T04:49:00.420Z,58.00
2019-05-22T04:51:28.101Z,58.00
2019-05-22T04:53:55.363Z,58.00
2019-05-22T04:56:22.290Z,58.10
2019-05-22T04:58:49.021Z,58.00
2019-05-22T05:01:16.320Z,58.10
2019-05-22T05:03:42.655Z,58.00
2019-05-22T05:06:09.084Z,58.00
2019-05-22T05:08:36.916Z,58.00
2019-05-22T05:11:04.642Z,58.00
2019-05-22T05:13:31.051Z,58.00
2019-05-22T05:15:57.440Z,58.00
2019-05-22T05:18:23.871Z,58.00
2019-05-22T05:20:50.199Z,58.00
2019-05-22T05:23:16.713Z,58.00
2019-05-22T05:25:45.027Z,57.90
2019-05-22T05:28:12.054Z,57.90
2019-05-22T05:30:38.766Z,57.90
2019-05-22T05:33:05.573Z,58.00
2019-05-22T05:35:32.087Z,58.00
2019-05-22T05:37:58.493Z,57.90
2019-05-22T05:40:30.766Z,57.90
2019-05-22T05:42:59.091Z,57.90
2019-05-22T05:45:26.594Z,58.00
2019-05-22T05:47:54.518Z,57.80
2019-05-22T05:50:21.639Z,57.90
2019-05-22T05:52:48.829Z,57.90
2019-05-22T05:55:15.376Z,57.80
2019-05-22T05:57:45.566Z,57.70
2019-05-22T06:00:33.373Z,57.60
2019-05-22T06:03:03.587Z,57.60
2019-05-22T06:05:30.807Z,57.80
2019-05-22T06:07:57.104Z,57.80
2019-05-22T06:10:30.891Z,57.70
2019-05-22T06:12:58.072Z,57.70
2019-05-22T06:15:47.090Z,57.70
2019-05-22T06:18:35.081Z,57.60
2019-05-22T06:21:04.317Z,57.60
2019-05-22T06:23:40.445Z,57.60
2019-05-22T06:26:07.309Z,57.60
2019-05-22T06:28:37.305Z,57.50
2019-05-22T06:31:05.306Z,57.50
2019-05-22T06:33:33.802Z,57.50
2019-05-22T06:36:05.599Z,57.60
2019-05-22T06:38:54.135Z,57.40
2019-05-22T06:41:22.444Z,57.50
2019-05-22T06:44:26.784Z,57.50
2019-05-22T06:46:53.100Z,57.50
2019-05-22T06:49:26.203Z,57.60
2019-05-22T06:51:52.783Z,57.60
2019-05-22T06:54:19.190Z,57.60
2019-05-22T06:56:45.735Z,57.60
2019-05-22T06:59:12.133Z,57.60
2019-05-22T07:01:38.429Z,57.60
2019-05-22T07:04:05.367Z,57.60
2019-05-22T07:06:33.375Z,57.60
2019-05-22T07:08:59.727Z,57.60
2019-05-22T07:11:27.236Z,57.60
2019-05-22T07:13:53.536Z,58.10
2019-05-22T07:16:19.868Z,57.40
2019-05-22T07:18:46.870Z,58.30
2019-05-22T07:21:13.171Z,57.90
2019-05-22T07:23:39.491Z,58.50
2019-05-22T07:26:06.311Z,57.30
2019-05-22T07:28:33.064Z,51.80
2019-05-22T07:30:59.452Z,53.50
2019-05-22T07:33:26.067Z,53.60
2019-05-22T07:36:08.536Z,55.20
2019-05-22T07:38:21.037Z,55.00
2019-05-22T07:40:50.511Z,54.50
2019-05-22T07:43:17.590Z,54.90
2019-05-22T07:45:43.965Z,54.60
2019-05-22T07:48:10.434Z,54.10
2019-05-22T07:50:38.768Z,53.90
2019-05-22T07:53:05.821Z,53.70
2019-05-22T07:55:32.237Z,53.30
2019-05-22T07:58:13.095Z,53.40
2019-05-22T08:00:40.627Z,53.10
2019-05-22T08:03:07.499Z,53.00
2019-05-22T08:05:35.835Z,53.10
2019-05-22T08:08:03.652Z,52.90
2019-05-22T08:10:30.575Z,52.80
2019-05-22T08:12:56.980Z,52.90
2019-05-22T08:15:23.453Z,52.60
2019-05-22T08:17:49.769Z,52.70
2019-05-22T08:20:18.440Z,52.70
2019-05-22T08:22:44.959Z,53.20
2019-05-22T08:25:11.361Z,55.30
2019-05-22T08:27:37.772Z,55.20
2019-05-22T08:30:05.083Z,53.30
2019-05-22T08:32:33.232Z,56.70
2019-05-22T08:34:59.560Z,58.90
2019-05-22T08:37:27.284Z,61.90
2019-05-22T08:39:53.595Z,65.70
2019-05-22T08:42:21.064Z,62.60
2019-05-22T08:44:47.360Z,58.50
2019-05-22T08:47:13.869Z,60.00
2019-05-22T08:49:40.524Z,61.90
2019-05-22T08:52:22.502Z,61.80
2019-05-22T08:54:44.509Z,61.30
2019-05-22T08:57:11.584Z,60.90
2019-05-22T08:59:38.789Z,62.00
2019-05-22T09:02:06.970Z,62.10
2019-05-22T09:04:33.632Z,62.40
2019-05-22T09:07:00.096Z,61.00
2019-05-22T09:09:26.417Z,61.30
2019-05-22T09:11:52.768Z,64.60
2019-05-22T09:14:19.220Z,63.30
2019-05-22T09:16:45.719Z,63.10
2019-05-22T09:19:13.524Z,66.10
2019-05-22T09:21:48.049Z,68.90
2019-05-22T09:24:16.586Z,66.90
2019-05-22T09:26:42.885Z,66.10
2019-05-22T09:29:09.313Z,65.60
2019-05-22T09:31:35.669Z,65.70
2019-05-22T09:34:02.471Z,67.40
2019-05-22T09:36:29.010Z,66.40
2019-05-22T09:38:55.779Z,67.40
2019-05-22T09:41:22.198Z,66.70
2019-05-22T09:43:48.510Z,62.40
2019-05-22T09:46:15.272Z,53.30
2019-05-22T09:48:42.376Z,52.40
2019-05-22T09:51:09.104Z,50.10
2019-05-22T09:53:35.759Z,48.60
2019-05-22T09:56:03.297Z,49.30
2019-05-22T09:58:30.290Z,50.60
2019-05-22T10:01:11.484Z,49.50
2019-05-22T10:03:27.168Z,48.90
2019-05-22T10:05:54.237Z,49.50
2019-05-22T10:08:21.245Z,49.50
2019-05-22T10:10:47.873Z,49.00
2019-05-22T10:13:15.289Z,48.60
2019-05-22T10:15:44.309Z,49.50
2019-05-22T10:18:11.484Z,50.30
2019-05-22T10:20:38.241Z,50.30
2019-05-22T10:23:15.587Z,50.60
2019-05-22T10:25:34.894Z,49.00
2019-05-22T10:28:01.663Z,48.50
2019-05-22T10:30:28.855Z,48.70
2019-05-22T10:32:57.568Z,48.20
2019-05-22T10:35:29.626Z,48.30
2019-05-22T10:37:56.627Z,48.00
2019-05-22T10:40:23.282Z,47.70
2019-05-22T10:42:51.182Z,48.00
2019-05-22T10:45:19.650Z,47.50
2019-05-22T10:47:46.822Z,47.80
2019-05-22T10:50:13.836Z,47.40
2019-05-22T10:52:42.038Z,45.80
2019-05-22T10:55:11.174Z,46.40
2019-05-22T10:57:40.703Z,45.40
2019-05-22T11:00:08.608Z,45.20
2019-05-22T11:02:35.063Z,44.60
2019-05-22T11:05:02.283Z,45.10
2019-05-22T11:07:29.135Z,45.00
2019-05-22T11:09:56.394Z,44.80
2019-05-22T11:12:23.260Z,46.30
2019-05-22T11:14:49.895Z,47.10
2019-05-22T11:17:16.628Z,47.80
2019-05-22T11:19:43.270Z,48.40
2019-05-22T11:22:11.285Z,48.70
2019-05-22T11:24:37.755Z,49.20
2019-05-22T11:27:05.309Z,49.60
2019-05-22T11:29:32.503Z,49.80
2019-05-22T11:31:59.294Z,50.20
2019-05-22T11:34:25.599Z,50.50
2019-05-22T11:36:52.588Z,50.50
2019-05-22T11:39:37.652Z,50.60
2019-05-22T11:41:49.414Z,50.60
2019-05-22T11:44:16.489Z,50.90
2019-05-22T11:46:43.582Z,51.10
2019-05-22T11:49:11.323Z,51.30
2019-05-22T11:51:38.392Z,51.30
2019-05-22T11:54:09.172Z,51.40
2019-05-22T11:56:33.472Z,51.40
2019-05-22T11:58:59.876Z,51.40
2019-05-22T12:01:26.236Z,51.70
2019-05-22T12:03:54.864Z,51.70
2019-05-22T12:06:22.145Z,51.60
2019-05-22T12:08:49.441Z,51.60
2019-05-22T12:11:16.912Z,51.60
2019-05-22T12:13:43.671Z,51.70
2019-05-22T12:16:11.962Z,51.90
2019-05-22T12:18:43.805Z,51.50
2019-05-22T12:21:10.508Z,51.40
2019-05-22T12:23:37.116Z,51.60
2019-05-22T12:26:03.422Z,44.10
2019-05-22T12:28:31.767Z,42.10
2019-05-22T12:31:09.342Z,40.30
2019-05-22T12:33:37.071Z,41.50
2019-05-22T12:36:06.925Z,42.40
2019-05-22T12:38:35.015Z,42.60
2019-05-22T12:41:02.796Z,42.30
2019-05-22T12:43:31.466Z,43.50
2019-05-22T12:46:00.143Z,41.20
2019-05-22T12:48:27.147Z,41.20
2019-05-22T12:50:54.126Z,36.40
2019-05-22T12:53:21.474Z,37.30
2019-05-22T12:55:48.609Z,38.50
2019-05-22T12:58:15.027Z,38.20
2019-05-22T13:00:43.570Z,39.00
2019-05-22T13:03:11.524Z,38.80
2019-05-22T13:05:42.743Z,38.80
2019-05-22T13:08:10.972Z,38.80
2019-05-22T13:10:37.379Z,38.00
2019-05-22T13:13:04.094Z,38.60
2019-05-22T13:15:33.061Z,38.80
2019-05-22T13:18:02.471Z,37.90
2019-05-22T13:20:41.989Z,38.00
2019-05-22T13:22:58.418Z,37.70
2019-05-22T13:25:28.437Z,37.70
2019-05-22T13:27:55.205Z,37.30
2019-05-22T13:30:23.018Z,37.70
2019-05-22T13:32:49.345Z,38.40
2019-05-22T13:35:17.231Z,37.70
2019-05-22T13:37:44.158Z,38.60
2019-05-22T13:40:26.699Z,38.60
2019-05-22T13:42:42.150Z,39.20
2019-05-22T13:45:26.035Z,39.90
2019-05-22T13:47:38.411Z,39.50
2019-05-22T13:50:05.819Z,39.50
2019-05-22T13:52:32.579Z,40.70
2019-05-22T13:54:59.863Z,40.40
2019-05-22T13:57:26.725Z,38.40
2019-05-22T13:59:53.358Z,39.80
2019-05-22T14:02:19.660Z,39.80
2019-05-22T14:04:48.017Z,39.30
2019-05-22T14:07:14.599Z,38.00
2019-05-22T14:09:41.606Z,37.10
2019-05-22T14:12:08.324Z,37.40
2019-05-22T14:14:34.722Z,38.50
2019-05-22T14:17:01.370Z,39.90
2019-05-22T14:19:27.905Z,38.80
2019-05-22T14:21:54.365Z,38.80
2019-05-22T14:24:20.799Z,39.60
2019-05-22T14:26:47.373Z,38.50
2019-05-22T14:29:13.776Z,38.60
2019-05-22T14:31:44.484Z,37.40
2019-05-22T14:34:11.604Z,36.80
2019-05-22T14:36:39.174Z,36.00
2019-05-22T14:39:06.559Z,36.00
2019-05-22T14:41:33.760Z,36.20
2019-05-22T14:44:00.216Z,35.40
2019-05-22T14:46:26.450Z,35.90
2019-05-22T14:48:53.595Z,35.80
2019-05-22T14:51:23.070Z,36.00
2019-05-22T14:53:49.716Z,36.50
2019-05-22T14:56:16.712Z,34.70
2019-05-22T14:58:43.419Z,35.10
2019-05-22T15:01:09.723Z,34.80
2019-05-22T15:03:36.435Z,34.40
2019-05-22T15:06:04.060Z,35.10
2019-05-22T15:08:32.033Z,35.80
2019-05-22T15:10:58.855Z,35.30
2019-05-22T15:13:25.548Z,36.00
2019-05-22T15:15:52.173Z,35.90
2019-05-22T15:18:24.896Z,36.20
2019-05-22T15:20:56.107Z,35.90
2019-05-22T15:23:25.373Z,35.70
2019-05-22T15:25:54.664Z,35.30
2019-05-22T15:28:26.509Z,35.80
2019-05-22T15:30:52.554Z,35.90
2019-05-22T15:33:19.402Z,35.40
2019-05-22T15:35:46.144Z,35.70
2019-05-22T15:38:14.093Z,35.80
2019-05-22T15:40:42.427Z,36.30
2019-05-22T15:43:12.472Z,36.50
2019-05-22T15:45:39.776Z,36.80
2019-05-22T15:48:09.750Z,37.00
2019-05-22T15:50:36.753Z,36.60
2019-05-22T15:53:11.698Z,36.60
2019-05-22T15:55:43.019Z,36.90
2019-05-22T15:58:09.965Z,36.90
2019-05-22T16:00:37.187Z,37.50
2019-05-22T16:03:13.200Z,37.80
2019-05-22T16:05:40.698Z,38.10
2019-05-22T16:08:07.124Z,37.40
2019-05-22T16:10:34.654Z,37.30
2019-05-22T16:13:01.170Z,37.60
2019-05-22T16:15:28.995Z,37.80
2019-05-22T16:18:10.551Z,37.50
2019-05-22T16:20:25.768Z,38.20
2019-05-22T16:22:53.119Z,38.90
2019-05-22T16:25:20.035Z,39.00
2019-05-22T16:27:47.007Z,38.20
2019-05-22T16:30:13.788Z,38.90
2019-05-22T16:32:40.200Z,39.30
2019-05-22T16:35:07.512Z,39.60
2019-05-22T16:37:33.910Z,40.40
2019-05-22T16:40:01.644Z,40.60
2019-05-22T16:42:30.203Z,40.60
2019-05-22T16:44:57.041Z,40.80
2019-05-22T16:47:23.559Z,41.10
2019-05-22T16:49:50.749Z,41.10
2019-05-22T16:52:17.075Z,41.20
2019-05-22T16:54:43.548Z,41.10
2019-05-22T16:57:10.117Z,41.20
2019-05-22T16:59:37.864Z,41.30
2019-05-22T17:02:05.615Z,41.50
2019-05-22T17:04:32.127Z,41.70
2019-05-22T17:06:59.496Z,41.90
2019-05-22T17:09:27.534Z,41.90
2019-05-22T17:11:54.462Z,41.90
2019-05-22T17:14:23.290Z,41.90
2019-05-22T17:16:50.533Z,41.90
2019-05-22T17:19:26.544Z,42.10
2019-05-22T17:21:46.685Z,42.20
2019-05-22T17:24:13.795Z,42.20
2019-05-22T17:26:40.450Z,42.40
2019-05-22T17:29:07.473Z,42.50
2019-05-22T17:31:34.283Z,42.60
2019-05-22T17:34:01.191Z,42.70
2019-05-22T17:36:28.577Z,42.70
2019-05-22T17:38:55.812Z,42.40
2019-05-22T17:41:23.115Z,42.90
2019-05-22T17:43:49.558Z,40.50
2019-05-22T17:46:16.005Z,41.30
2019-05-22T17:48:42.962Z,41.40
2019-05-22T17:51:19.807Z,41.00
2019-05-22T17:53:48.286Z,41.50
2019-05-22T17:56:17.382Z,40.70
2019-05-22T17:58:46.820Z,40.60
2019-05-22T18:01:13.659Z,41.40
2019-05-22T18:03:40.208Z,41.10
2019-05-22T18:06:06.629Z,40.70
2019-05-22T18:08:33.043Z,40.90
2019-05-22T18:10:59.904Z,41.20
2019-05-22T18:13:26.579Z,41.60
2019-05-22T18:15:52.880Z,42.10
2019-05-22T18:18:19.818Z,44.20
2019-05-22T18:20:46.261Z,47.60
2019-05-22T18:23:12.890Z,47.30
2019-05-22T18:25:39.532Z,47.10
2019-05-22T18:28:06.941Z,48.30
2019-05-22T18:30:35.588Z,48.00
2019-05-22T18:33:01.888Z,48.30
2019-05-22T18:35:28.877Z,48.30
2019-05-22T18:37:55.340Z,48.00
2019-05-22T18:40:21.698Z,48.30
2019-05-22T18:42:48.198Z,49.10
2019-05-22T18:45:14.599Z,48.80
2019-05-22T18:47:41.847Z,49.50
2019-05-22T18:50:08.672Z,50.30
2019-05-22T18:52:41.022Z,50.60
2019-05-22T18:55:05.072Z,50.40
2019-05-22T18:57:32.889Z,50.30
2019-05-22T19:00:03.758Z,50.00
2019-05-22T19:02:27.596Z,50.00
2019-05-22T19:04:54.014Z,50.30
2019-05-22T19:07:20.547Z,49.90
2019-05-22T19:09:46.871Z,50.00
2019-05-22T19:12:14.047Z,49.90
2019-05-22T19:14:40.870Z,50.00
2019-05-22T19:17:07.734Z,50.80
2019-05-22T19:19:35.432Z,50.20
2019-05-22T19:22:02.483Z,51.00
2019-05-22T19:24:29.298Z,50.50
2019-05-22T19:26:55.957Z,50.70
2019-05-22T19:29:23.135Z,50.60
2019-05-22T19:31:49.438Z,50.70
2019-05-22T19:34:16.635Z,50.10
2019-05-22T19:36:43.482Z,43.50
2019-05-22T19:39:09.780Z,44.50
2019-05-22T19:41:36.325Z,45.10
2019-05-22T19:44:04.452Z,46.30
2019-05-22T19:46:30.876Z,46.40
2019-05-22T19:48:57.996Z,46.80
2019-05-22T19:51:26.321Z,46.90
2019-05-22T19:53:55.745Z,46.80
2019-05-22T19:56:23.868Z,47.00
2019-05-22T19:58:50.745Z,47.20
2019-05-22T20:01:17.491Z,47.40
2019-05-22T20:03:44.612Z,47.60
2019-05-22T20:06:11.945Z,47.70
2019-05-22T20:08:38.478Z,47.70
2019-05-22T20:11:04.980Z,48.40
2019-05-22T20:13:31.500Z,48.30
2019-05-22T20:15:58.127Z,48.50
2019-05-22T20:18:24.927Z,48.60
2019-05-22T20:20:51.549Z,48.90
2019-05-22T20:23:32.971Z,48.70
2019-05-22T20:25:48.059Z,48.90
2019-05-22T20:28:14.787Z,48.80
2019-05-22T20:30:41.207Z,48.70
2019-05-22T20:33:08.220Z,48.70
2019-05-22T20:35:34.628Z,48.70
2019-05-22T20:38:01.518Z,48.80
2019-05-22T20:40:28.136Z,48.70
2019-05-22T20:42:54.706Z,49.30
2019-05-22T20:45:22.944Z,48.70
2019-05-22T20:48:05.744Z,48.90
2019-05-22T20:50:33.255Z,48.90
2019-05-22T20:52:59.565Z,48.90
2019-05-22T20:55:26.603Z,49.00
2019-05-22T20:57:53.038Z,49.00
2019-05-22T21:00:21.298Z,49.10
2019-05-22T21:02:47.864Z,49.70
2019-05-22T21:05:14.874Z,49.20
2019-05-22T21:07:48.378Z,49.10
2019-05-22T21:10:15.683Z,49.20
2019-05-22T21:12:44.416Z,49.20
2019-05-22T21:15:11.519Z,49.20
2019-05-22T21:17:39.216Z,49.40
2019-05-22T21:20:06.433Z,49.50
2019-05-22T21:22:33.256Z,49.50
2019-05-22T21:24:59.663Z,49.40
2019-05-22T21:27:27.302Z,49.10
2019-05-22T21:29:54.706Z,49.50
2019-05-22T21:32:21.813Z,49.40
2019-05-22T21:34:48.940Z,49.90
2019-05-22T21:37:16.411Z,49.60
2019-05-22T21:39:42.698Z,49.80
2019-05-22T21:42:09.623Z,49.70
2019-05-22T21:44:36.295Z,49.90
2019-05-22T21:47:02.973Z,50.00
2019-05-22T21:49:29.290Z,50.10
2019-05-22T21:51:55.568Z,50.20
2019-05-22T21:54:22.200Z,50.40
2019-05-22T21:56:48.505Z,50.50
2019-05-22T21:59:15.444Z,50.50
2019-05-22T22:01:46.663Z,50.50
2019-05-22T22:04:15.132Z,50.50
2019-05-22T22:06:41.718Z,50.50
2019-05-22T22:09:08.390Z,50.50
2019-05-22T22:11:35.246Z,50.40
2019-05-22T22:14:02.647Z,50.40
2019-05-22T22:16:28.947Z,50.50
2019-05-22T22:18:55.757Z,50.80
2019-05-22T22:21:22.581Z,51.00
2019-05-22T22:23:49.577Z,51.10
2019-05-22T22:26:25.297Z,51.10
2019-05-22T22:28:46.208Z,51.30
2019-05-22T22:31:17.143Z,51.00
2019-05-22T22:33:46.847Z,51.00
2019-05-22T22:36:14.268Z,50.70
2019-05-22T22:38:41.868Z,50.90
2019-05-22T22:41:09.569Z,51.00
2019-05-22T22:43:37.110Z,51.20
2019-05-22T22:46:08.292Z,51.10
2019-05-22T22:48:36.310Z,51.10
2019-05-22T22:51:03.376Z,51.20
2019-05-22T22:53:31.038Z,51.50
2019-05-22T22:55:58.135Z,51.50
2019-05-22T22:58:24.964Z,51.50
2019-05-22T23:00:53.874Z,51.50
2019-05-22T23:03:21.797Z,51.40
2019-05-22T23:05:48.923Z,51.50
2019-05-22T23:08:29.944Z,51.60
2019-05-22T23:10:56.777Z,52.30
2019-05-22T23:13:23.073Z,51.60
2019-05-22T23:15:50.271Z,51.70
2019-05-22T23:18:38.363Z,51.70
2019-05-22T23:21:09.040Z,51.80
2019-05-22T23:23:34.604Z,52.10
2019-05-22T23:26:01.707Z,52.00
2019-05-22T23:28:34.711Z,52.20
2019-05-22T23:30:57.403Z,52.10
2019-05-22T23:33:23.703Z,52.20
2019-05-22T23:35:50.040Z,52.00
2019-05-22T23:38:16.841Z,52.10
2019-05-22T23:40:43.744Z,52.10
2019-05-22T23:43:10.058Z,52.20
2019-05-22T23:45:36.928Z,52.20
2019-05-22T23:48:07.612Z,52.10
2019-05-22T23:50:34.703Z,52.20
2019-05-22T23:53:01.923Z,52.40
2019-05-22T23:55:28.843Z,52.50
2019-05-22T23:57:55.550Z,52.40
